General R Fierro Villalobos International Airport
MMCU : rendu visible

Aérodrome :











RETROUVEZ-NOUS SUR...

 
LOGIN :

S'inscrire | Disclaimer

   EN    FR    IT 

 









Légende :    VFR   VFR Marginal   IFR   IFR Intensif   IFR Très Intensif
Visi : 
Plafond : 
>= 8 km
>= 3000ft
5 à 8 km
1000 à 3000 ft
1500m à 5 km
500 à 1000 ft
800 à 1500m
200 à 500 ft
< 800m
< 200 ft
Symboles :   Orages  Brouillard  Fortes neiges  Fortes précipitations  Vent > 20 kt






- Altitude de l'aérodrome : 4462 ft
- Code IATA : CUU


MMCU - General R Fierro Villalobos International

DERNIER METAR :
  • 140043Z 10007KT 10SM SKC 15/01 A3014

METARs EXPIRÉS :
  • 132344Z 07007KT 10SM SKC 19/00 A3014 RMK SLP170 57006 969
  • 132245Z 09005KT 10SM SKC 21/00 A3012

TAF TAF MMCU
Valide du 13 à 18h jusqu'au 14 à 18h UTC


131714Z 1318/1418 02005KT P6SM SKC
FM140300 23010KT P6SM SKC



MET'MAP, la Météo Aéronautique d'un coup d'oeil ! - Copyright ORBIFLY Décembre 2007 - Disclaimer

ORBIFLY MET'MAP TEAM :

Programmation & Développement : Alexandra Zaïnal
Sur une idée originale de : Baudouin d'Aumeries
Assistance à la programmation : Marc-Olivier Méhu
Soutien technique & logistique : Manuel Goepfert

Contact : metmap@orbifly.com




SOURCES & CREDITS :

   NOAA       Earth
Advisory